sensor_id;sensor_type;location;lat;lon;timestamp;P1;durP1;ratioP1;P2;durP2;ratioP2
43678;SDS011;29279;50.858;4.392;2023-02-21T00:00:14;72.28;;;36.35;;
43678;SDS011;29279;50.858;4.392;2023-02-21T00:02:59;66.90;;;37.13;;
43678;SDS011;29279;50.858;4.392;2023-02-21T00:05:43;69.00;;;35.75;;
43678;SDS011;29279;50.858;4.392;2023-02-21T00:08:27;75.47;;;37.17;;
43678;SDS011;29279;50.858;4.392;2023-02-21T00:11:12;76.05;;;39.63;;
43678;SDS011;29279;50.858;4.392;2023-02-21T00:13:55;80.75;;;41.45;;
43678;SDS011;29279;50.858;4.392;2023-02-21T00:16:39;77.07;;;39.60;;
43678;SDS011;29279;50.858;4.392;2023-02-21T00:19:23;78.32;;;39.63;;
43678;SDS011;29279;50.858;4.392;2023-02-21T00:22:07;83.82;;;41.83;;
43678;SDS011;29279;50.858;4.392;2023-02-21T00:24:52;80.70;;;41.42;;
43678;SDS011;29279;50.858;4.392;2023-02-21T00:27:36;88.63;;;41.28;;
43678;SDS011;29279;50.858;4.392;2023-02-21T00:30:20;75.18;;;37.85;;
43678;SDS011;29279;50.858;4.392;2023-02-21T00:33:04;86.50;;;41.45;;
43678;SDS011;29279;50.858;4.392;2023-02-21T00:35:48;97.82;;;42.38;;
43678;SDS011;29279;50.858;4.392;2023-02-21T00:38:32;88.82;;;41.42;;
43678;SDS011;29279;50.858;4.392;2023-02-21T00:41:20;99.88;;;43.42;;
43678;SDS011;29279;50.858;4.392;2023-02-21T00:44:05;115.75;;;46.75;;
43678;SDS011;29279;50.858;4.392;2023-02-21T00:46:49;110.82;;;46.63;;
43678;SDS011;29279;50.858;4.392;2023-02-21T00:49:33;112.93;;;45.10;;
43678;SDS011;29279;50.858;4.392;2023-02-21T00:52:18;94.57;;;42.97;;
43678;SDS011;29279;50.858;4.392;2023-02-21T00:55:02;106.60;;;43.58;;
43678;SDS011;29279;50.858;4.392;2023-02-21T00:57:47;102.63;;;44.25;;
43678;SDS011;29279;50.858;4.392;2023-02-21T01:00:31;107.35;;;43.83;;
43678;SDS011;29279;50.858;4.392;2023-02-21T01:03:15;102.13;;;42.33;;
43678;SDS011;29279;50.858;4.392;2023-02-21T01:05:59;109.82;;;40.85;;
43678;SDS011;29279;50.858;4.392;2023-02-21T01:08:44;89.68;;;39.72;;
43678;SDS011;29279;50.858;4.392;2023-02-21T01:11:30;123.35;;;39.03;;
43678;SDS011;29279;50.858;4.392;2023-02-21T01:14:15;106.40;;;41.70;;
43678;SDS011;29279;50.858;4.392;2023-02-21T01:17:00;103.68;;;40.38;;
43678;SDS011;29279;50.858;4.392;2023-02-21T01:19:44;135.02;;;42.92;;
43678;SDS011;29279;50.858;4.392;2023-02-21T01:22:29;107.03;;;40.67;;
43678;SDS011;29279;50.858;4.392;2023-02-21T01:25:13;106.60;;;41.75;;
43678;SDS011;29279;50.858;4.392;2023-02-21T01:27:58;115.00;;;42.03;;
43678;SDS011;29279;50.858;4.392;2023-02-21T01:30:42;99.95;;;41.10;;
43678;SDS011;29279;50.858;4.392;2023-02-21T01:33:26;87.22;;;38.22;;
43678;SDS011;29279;50.858;4.392;2023-02-21T01:36:10;100.40;;;39.75;;
43678;SDS011;29279;50.858;4.392;2023-02-21T01:38:54;123.82;;;42.22;;
43678;SDS011;29279;50.858;4.392;2023-02-21T01:41:38;151.27;;;44.92;;
43678;SDS011;29279;50.858;4.392;2023-02-21T01:47:15;151.45;;;46.90;;
43678;SDS011;29279;50.858;4.392;2023-02-21T01:50:00;127.00;;;43.85;;
43678;SDS011;29279;50.858;4.392;2023-02-21T01:52:47;131.63;;;44.58;;
43678;SDS011;29279;50.858;4.392;2023-02-21T01:55:32;168.63;;;43.85;;
43678;SDS011;29279;50.858;4.392;2023-02-21T01:58:19;132.60;;;40.72;;
43678;SDS011;29279;50.858;4.392;2023-02-21T02:01:05;230.20;;;43.70;;
43678;SDS011;29279;50.858;4.392;2023-02-21T02:03:52;121.40;;;39.90;;
43678;SDS011;29279;50.858;4.392;2023-02-21T02:06:36;185.27;;;41.40;;
43678;SDS011;29279;50.858;4.392;2023-02-21T02:09:21;133.48;;;39.30;;
43678;SDS011;29279;50.858;4.392;2023-02-21T02:28:25;97.82;;;36.17;;
43678;SDS011;29279;50.858;4.392;2023-02-21T02:34:22;123.43;;;36.42;;
43678;SDS011;29279;50.858;4.392;2023-02-21T02:37:11;110.03;;;38.40;;
43678;SDS011;29279;50.858;4.392;2023-02-21T02:39:41;145.13;;;36.53;;
43678;SDS011;29279;50.858;4.392;2023-02-21T02:45:14;123.28;;;36.45;;
43678;SDS011;29279;50.858;4.392;2023-02-21T02:47:49;120.45;;;36.65;;
43678;SDS011;29279;50.858;4.392;2023-02-21T02:50:19;112.00;;;37.35;;
43678;SDS011;29279;50.858;4.392;2023-02-21T02:52:53;119.25;;;38.92;;
43678;SDS011;29279;50.858;4.392;2023-02-21T02:58:02;114.63;;;38.17;;
43678;SDS011;29279;50.858;4.392;2023-02-21T03:00:29;142.45;;;40.55;;
43678;SDS011;29279;50.858;4.392;2023-02-21T03:03:05;138.50;;;40.95;;
43678;SDS011;29279;50.858;4.392;2023-02-21T03:10:54;153.65;;;41.55;;
43678;SDS011;29279;50.858;4.392;2023-02-21T03:13:36;123.50;;;37.67;;
43678;SDS011;29279;50.858;4.392;2023-02-21T03:16:22;117.05;;;37.55;;
43678;SDS011;29279;50.858;4.392;2023-02-21T03:18:49;133.55;;;39.70;;
43678;SDS011;29279;50.858;4.392;2023-02-21T03:21:31;119.57;;;35.60;;
43678;SDS011;29279;50.858;4.392;2023-02-21T03:24:01;129.15;;;38.58;;
43678;SDS011;29279;50.858;4.392;2023-02-21T03:26:30;101.53;;;36.78;;
43678;SDS011;29279;50.858;4.392;2023-02-21T03:29:00;183.30;;;39.75;;
43678;SDS011;29279;50.858;4.392;2023-02-21T03:31:29;119.57;;;36.45;;
43678;SDS011;29279;50.858;4.392;2023-02-21T03:34:04;124.38;;;35.03;;
43678;SDS011;29279;50.858;4.392;2023-02-21T03:36:31;111.05;;;35.15;;
43678;SDS011;29279;50.858;4.392;2023-02-21T03:38:57;102.90;;;34.00;;
43678;SDS011;29279;50.858;4.392;2023-02-21T03:41:22;145.32;;;34.70;;
43678;SDS011;29279;50.858;4.392;2023-02-21T03:43:48;124.50;;;33.35;;
43678;SDS011;29279;50.858;4.392;2023-02-21T03:46:14;111.55;;;34.10;;
43678;SDS011;29279;50.858;4.392;2023-02-21T03:48:39;99.88;;;31.00;;
43678;SDS011;29279;50.858;4.392;2023-02-21T03:51:05;108.20;;;32.13;;
43678;SDS011;29279;50.858;4.392;2023-02-21T03:53:30;105.55;;;32.13;;
43678;SDS011;29279;50.858;4.392;2023-02-21T03:55:56;93.00;;;31.35;;
43678;SDS011;29279;50.858;4.392;2023-02-21T03:58:22;93.57;;;30.30;;
43678;SDS011;29279;50.858;4.392;2023-02-21T04:00:47;89.43;;;28.27;;
43678;SDS011;29279;50.858;4.392;2023-02-21T04:03:14;84.50;;;29.48;;
43678;SDS011;29279;50.858;4.392;2023-02-21T04:05:39;70.60;;;25.48;;
43678;SDS011;29279;50.858;4.392;2023-02-21T04:08:05;80.10;;;27.25;;
43678;SDS011;29279;50.858;4.392;2023-02-21T04:10:31;66.80;;;25.40;;
43678;SDS011;29279;50.858;4.392;2023-02-21T04:12:57;71.82;;;27.30;;
43678;SDS011;29279;50.858;4.392;2023-02-21T04:15:22;92.88;;;28.63;;
43678;SDS011;29279;50.858;4.392;2023-02-21T04:17:48;83.80;;;28.90;;
43678;SDS011;29279;50.858;4.392;2023-02-21T04:20:14;76.93;;;26.92;;
43678;SDS011;29279;50.858;4.392;2023-02-21T04:22:39;75.03;;;29.13;;
43678;SDS011;29279;50.858;4.392;2023-02-21T04:25:05;76.95;;;27.08;;
43678;SDS011;29279;50.858;4.392;2023-02-21T04:27:31;69.47;;;26.20;;
43678;SDS011;29279;50.858;4.392;2023-02-21T04:29:58;71.82;;;25.63;;
43678;SDS011;29279;50.858;4.392;2023-02-21T04:32:24;79.57;;;25.30;;
43678;SDS011;29279;50.858;4.392;2023-02-21T04:34:51;82.20;;;27.00;;
43678;SDS011;29279;50.858;4.392;2023-02-21T04:37:16;113.13;;;27.92;;
43678;SDS011;29279;50.858;4.392;2023-02-21T04:39:42;72.22;;;25.33;;
43678;SDS011;29279;50.858;4.392;2023-02-21T04:42:08;80.55;;;23.60;;
43678;SDS011;29279;50.858;4.392;2023-02-21T04:44:34;55.22;;;21.60;;
43678;SDS011;29279;50.858;4.392;2023-02-21T04:47:00;65.10;;;23.77;;
43678;SDS011;29279;50.858;4.392;2023-02-21T04:49:26;65.32;;;22.80;;
43678;SDS011;29279;50.858;4.392;2023-02-21T04:51:52;57.03;;;20.77;;
43678;SDS011;29279;50.858;4.392;2023-02-21T04:54:18;58.00;;;21.83;;
43678;SDS011;29279;50.858;4.392;2023-02-21T04:56:44;55.35;;;21.60;;
43678;SDS011;29279;50.858;4.392;2023-02-21T04:59:10;59.35;;;22.35;;
43678;SDS011;29279;50.858;4.392;2023-02-21T05:01:36;47.25;;;19.05;;
43678;SDS011;29279;50.858;4.392;2023-02-21T05:04:01;49.13;;;19.88;;
43678;SDS011;29279;50.858;4.392;2023-02-21T05:06:28;48.15;;;19.67;;
43678;SDS011;29279;50.858;4.392;2023-02-21T05:08:55;42.72;;;18.75;;
43678;SDS011;29279;50.858;4.392;2023-02-21T05:11:21;39.00;;;18.02;;
43678;SDS011;29279;50.858;4.392;2023-02-21T05:13:47;42.25;;;17.67;;
43678;SDS011;29279;50.858;4.392;2023-02-21T05:16:13;35.42;;;17.70;;
43678;SDS011;29279;50.858;4.392;2023-02-21T05:18:43;33.80;;;16.40;;
43678;SDS011;29279;50.858;4.392;2023-02-21T05:21:10;32.35;;;16.05;;
43678;SDS011;29279;50.858;4.392;2023-02-21T05:23:37;34.60;;;16.45;;
43678;SDS011;29279;50.858;4.392;2023-02-21T05:26:07;34.88;;;16.92;;
43678;SDS011;29279;50.858;4.392;2023-02-21T05:28:34;34.60;;;15.95;;
43678;SDS011;29279;50.858;4.392;2023-02-21T05:31:04;28.70;;;13.52;;
43678;SDS011;29279;50.858;4.392;2023-02-21T05:33:31;24.30;;;12.88;;
43678;SDS011;29279;50.858;4.392;2023-02-21T05:35:58;30.40;;;13.73;;
43678;SDS011;29279;50.858;4.392;2023-02-21T05:38:24;25.98;;;12.93;;
43678;SDS011;29279;50.858;4.392;2023-02-21T05:40:50;33.63;;;14.98;;
43678;SDS011;29279;50.858;4.392;2023-02-21T05:43:16;30.67;;;14.65;;
43678;SDS011;29279;50.858;4.392;2023-02-21T05:45:42;31.55;;;15.45;;
43678;SDS011;29279;50.858;4.392;2023-02-21T05:48:07;35.65;;;16.35;;
43678;SDS011;29279;50.858;4.392;2023-02-21T05:50:33;29.08;;;15.50;;
43678;SDS011;29279;50.858;4.392;2023-02-21T05:52:59;27.30;;;13.77;;
43678;SDS011;29279;50.858;4.392;2023-02-21T05:55:25;25.17;;;12.15;;
43678;SDS011;29279;50.858;4.392;2023-02-21T05:57:52;25.13;;;13.60;;
43678;SDS011;29279;50.858;4.392;2023-02-21T06:00:19;24.80;;;13.23;;
43678;SDS011;29279;50.858;4.392;2023-02-21T06:02:50;29.13;;;13.85;;
43678;SDS011;29279;50.858;4.392;2023-02-21T06:05:16;30.40;;;13.57;;
43678;SDS011;29279;50.858;4.392;2023-02-21T06:07:42;32.95;;;14.88;;
43678;SDS011;29279;50.858;4.392;2023-02-21T06:10:09;27.35;;;13.57;;
43678;SDS011;29279;50.858;4.392;2023-02-21T06:12:34;28.58;;;13.10;;
43678;SDS011;29279;50.858;4.392;2023-02-21T06:15:00;25.95;;;13.10;;
43678;SDS011;29279;50.858;4.392;2023-02-21T06:17:26;30.10;;;14.20;;
43678;SDS011;29279;50.858;4.392;2023-02-21T06:19:54;28.75;;;14.20;;
43678;SDS011;29279;50.858;4.392;2023-02-21T06:22:21;30.63;;;14.20;;
43678;SDS011;29279;50.858;4.392;2023-02-21T06:24:46;32.72;;;14.85;;
43678;SDS011;29279;50.858;4.392;2023-02-21T06:27:12;32.03;;;14.38;;
43678;SDS011;29279;50.858;4.392;2023-02-21T06:29:39;36.10;;;14.95;;
43678;SDS011;29279;50.858;4.392;2023-02-21T06:32:05;30.95;;;14.70;;
43678;SDS011;29279;50.858;4.392;2023-02-21T06:34:30;29.38;;;13.70;;
43678;SDS011;29279;50.858;4.392;2023-02-21T06:36:56;30.20;;;14.48;;
43678;SDS011;29279;50.858;4.392;2023-02-21T06:39:22;35.42;;;13.65;;
43678;SDS011;29279;50.858;4.392;2023-02-21T06:41:48;33.88;;;14.13;;
43678;SDS011;29279;50.858;4.392;2023-02-21T06:44:15;30.50;;;13.73;;
43678;SDS011;29279;50.858;4.392;2023-02-21T06:46:41;27.33;;;12.32;;
43678;SDS011;29279;50.858;4.392;2023-02-21T06:49:07;29.60;;;12.68;;
43678;SDS011;29279;50.858;4.392;2023-02-21T06:51:37;25.00;;;11.48;;
43678;SDS011;29279;50.858;4.392;2023-02-21T06:54:04;23.42;;;11.40;;
43678;SDS011;29279;50.858;4.392;2023-02-21T06:56:32;20.33;;;10.85;;
43678;SDS011;29279;50.858;4.392;2023-02-21T06:58:58;24.92;;;11.90;;
43678;SDS011;29279;50.858;4.392;2023-02-21T07:01:24;23.55;;;11.73;;
43678;SDS011;29279;50.858;4.392;2023-02-21T07:03:51;25.48;;;11.75;;
43678;SDS011;29279;50.858;4.392;2023-02-21T07:06:18;29.92;;;11.77;;
43678;SDS011;29279;50.858;4.392;2023-02-21T07:08:43;26.88;;;12.40;;
43678;SDS011;29279;50.858;4.392;2023-02-21T07:11:09;25.50;;;11.60;;
43678;SDS011;29279;50.858;4.392;2023-02-21T07:13:35;24.45;;;11.85;;
43678;SDS011;29279;50.858;4.392;2023-02-21T07:16:01;24.50;;;10.93;;
43678;SDS011;29279;50.858;4.392;2023-02-21T07:18:27;25.63;;;11.05;;
43678;SDS011;29279;50.858;4.392;2023-02-21T07:20:52;25.70;;;12.75;;
43678;SDS011;29279;50.858;4.392;2023-02-21T07:23:19;26.05;;;11.60;;
43678;SDS011;29279;50.858;4.392;2023-02-21T07:25:46;30.13;;;14.48;;
43678;SDS011;29279;50.858;4.392;2023-02-21T07:28:11;30.67;;;14.40;;
43678;SDS011;29279;50.858;4.392;2023-02-21T07:30:37;32.13;;;12.48;;
43678;SDS011;29279;50.858;4.392;2023-02-21T07:33:03;31.77;;;14.43;;
43678;SDS011;29279;50.858;4.392;2023-02-21T07:35:28;27.30;;;13.45;;
43678;SDS011;29279;50.858;4.392;2023-02-21T07:37:54;31.33;;;14.07;;
43678;SDS011;29279;50.858;4.392;2023-02-21T07:40:20;33.47;;;14.35;;
43678;SDS011;29279;50.858;4.392;2023-02-21T07:42:45;34.75;;;15.60;;
43678;SDS011;29279;50.858;4.392;2023-02-21T07:45:14;36.45;;;16.25;;
43678;SDS011;29279;50.858;4.392;2023-02-21T07:47:41;44.13;;;17.27;;
43678;SDS011;29279;50.858;4.392;2023-02-21T07:50:08;39.08;;;16.45;;
43678;SDS011;29279;50.858;4.392;2023-02-21T07:52:33;44.45;;;17.35;;
43678;SDS011;29279;50.858;4.392;2023-02-21T07:54:59;60.22;;;21.75;;
43678;SDS011;29279;50.858;4.392;2023-02-21T07:57:25;62.50;;;22.65;;
43678;SDS011;29279;50.858;4.392;2023-02-21T07:59:50;91.20;;;24.70;;
43678;SDS011;29279;50.858;4.392;2023-02-21T08:02:16;72.05;;;24.23;;
43678;SDS011;29279;50.858;4.392;2023-02-21T08:04:42;80.80;;;25.27;;
43678;SDS011;29279;50.858;4.392;2023-02-21T08:07:08;80.65;;;25.92;;
43678;SDS011;29279;50.858;4.392;2023-02-21T08:09:34;81.78;;;27.90;;
43678;SDS011;29279;50.858;4.392;2023-02-21T08:12:01;75.53;;;26.83;;
43678;SDS011;29279;50.858;4.392;2023-02-21T08:14:26;89.45;;;28.13;;
43678;SDS011;29279;50.858;4.392;2023-02-21T08:16:52;82.47;;;27.77;;
43678;SDS011;29279;50.858;4.392;2023-02-21T08:19:18;92.43;;;27.35;;
43678;SDS011;29279;50.858;4.392;2023-02-21T08:21:44;90.53;;;26.50;;
43678;SDS011;29279;50.858;4.392;2023-02-21T08:24:11;83.18;;;26.52;;
43678;SDS011;29279;50.858;4.392;2023-02-21T08:26:39;85.75;;;28.25;;
43678;SDS011;29279;50.858;4.392;2023-02-21T08:29:06;97.78;;;28.02;;
43678;SDS011;29279;50.858;4.392;2023-02-21T08:31:36;98.75;;;29.27;;
43678;SDS011;29279;50.858;4.392;2023-02-21T08:34:05;77.00;;;27.95;;
43678;SDS011;29279;50.858;4.392;2023-02-21T08:36:36;114.55;;;29.52;;
43678;SDS011;29279;50.858;4.392;2023-02-21T08:39:04;90.38;;;28.73;;
43678;SDS011;29279;50.858;4.392;2023-02-21T08:41:48;80.80;;;27.52;;
43678;SDS011;29279;50.858;4.392;2023-02-21T08:44:16;80.85;;;26.88;;
43678;SDS011;29279;50.858;4.392;2023-02-21T08:46:42;86.28;;;28.83;;
43678;SDS011;29279;50.858;4.392;2023-02-21T08:49:09;106.75;;;30.95;;
43678;SDS011;29279;50.858;4.392;2023-02-21T08:51:34;93.47;;;31.20;;
43678;SDS011;29279;50.858;4.392;2023-02-21T08:54:00;104.78;;;30.77;;
43678;SDS011;29279;50.858;4.392;2023-02-21T08:56:27;96.68;;;29.70;;
43678;SDS011;29279;50.858;4.392;2023-02-21T08:58:54;95.75;;;30.85;;
43678;SDS011;29279;50.858;4.392;2023-02-21T09:01:21;144.25;;;33.28;;
43678;SDS011;29279;50.858;4.392;2023-02-21T09:03:48;99.82;;;31.52;;
43678;SDS011;29279;50.858;4.392;2023-02-21T09:06:13;101.85;;;32.63;;
43678;SDS011;29279;50.858;4.392;2023-02-21T09:08:40;95.65;;;31.35;;
43678;SDS011;29279;50.858;4.392;2023-02-21T09:11:06;91.75;;;31.50;;
43678;SDS011;29279;50.858;4.392;2023-02-21T09:13:32;95.85;;;31.08;;
43678;SDS011;29279;50.858;4.392;2023-02-21T09:15:58;84.68;;;31.00;;
43678;SDS011;29279;50.858;4.392;2023-02-21T09:18:25;90.30;;;29.52;;
43678;SDS011;29279;50.858;4.392;2023-02-21T09:20:51;90.18;;;29.83;;
43678;SDS011;29279;50.858;4.392;2023-02-21T09:23:18;80.47;;;26.70;;
43678;SDS011;29279;50.858;4.392;2023-02-21T09:25:45;72.15;;;24.90;;
43678;SDS011;29279;50.858;4.392;2023-02-21T09:28:13;75.78;;;25.75;;
43678;SDS011;29279;50.858;4.392;2023-02-21T09:30:39;58.58;;;24.98;;
43678;SDS011;29279;50.858;4.392;2023-02-21T09:33:05;62.05;;;22.05;;
43678;SDS011;29279;50.858;4.392;2023-02-21T09:35:31;65.18;;;22.70;;
43678;SDS011;29279;50.858;4.392;2023-02-21T09:37:57;48.10;;;20.77;;
43678;SDS011;29279;50.858;4.392;2023-02-21T09:46:01;67.50;;;22.13;;
43678;SDS011;29279;50.858;4.392;2023-02-21T09:48:51;54.90;;;22.55;;
43678;SDS011;29279;50.858;4.392;2023-02-21T09:51:18;60.35;;;22.58;;
43678;SDS011;29279;50.858;4.392;2023-02-21T09:53:45;57.15;;;22.33;;
43678;SDS011;29279;50.858;4.392;2023-02-21T09:56:13;52.08;;;21.75;;
43678;SDS011;29279;50.858;4.392;2023-02-21T09:58:54;45.87;;;16.07;;
43678;SDS011;29279;50.858;4.392;2023-02-21T10:01:23;112.68;;;31.52;;
43678;SDS011;29279;50.858;4.392;2023-02-21T10:06:50;48.35;;;21.58;;
43678;SDS011;29279;50.858;4.392;2023-02-21T10:12:30;46.45;;;21.33;;
43678;SDS011;29279;50.858;4.392;2023-02-21T10:18:14;32.40;;;16.75;;
43678;SDS011;29279;50.858;4.392;2023-02-21T10:20:46;39.80;;;18.00;;
43678;SDS011;29279;50.858;4.392;2023-02-21T10:26:18;35.38;;;17.65;;
43678;SDS011;29279;50.858;4.392;2023-02-21T10:28:48;36.92;;;18.70;;
43678;SDS011;29279;50.858;4.392;2023-02-21T10:31:21;36.80;;;18.88;;
43678;SDS011;29279;50.858;4.392;2023-02-21T10:33:53;36.05;;;17.95;;
43678;SDS011;29279;50.858;4.392;2023-02-21T10:36:20;38.60;;;18.95;;
43678;SDS011;29279;50.858;4.392;2023-02-21T10:41:18;40.28;;;19.73;;
43678;SDS011;29279;50.858;4.392;2023-02-21T10:43:46;40.47;;;19.17;;
43678;SDS011;29279;50.858;4.392;2023-02-21T10:46:30;36.08;;;18.98;;
43678;SDS011;29279;50.858;4.392;2023-02-21T10:51:39;35.40;;;19.15;;
43678;SDS011;29279;50.858;4.392;2023-02-21T10:54:18;37.05;;;19.60;;
43678;SDS011;29279;50.858;4.392;2023-02-21T10:56:49;71.63;;;19.27;;
43678;SDS011;29279;50.858;4.392;2023-02-21T10:59:59;36.10;;;19.05;;
43678;SDS011;29279;50.858;4.392;2023-02-21T11:02:23;32.53;;;18.17;;
43678;SDS011;29279;50.858;4.392;2023-02-21T11:04:55;32.30;;;18.40;;
43678;SDS011;29279;50.858;4.392;2023-02-21T11:07:40;36.80;;;19.00;;
43678;SDS011;29279;50.858;4.392;2023-02-21T11:10:29;38.85;;;18.83;;
43678;SDS011;29279;50.858;4.392;2023-02-21T11:13:39;36.42;;;20.27;;
43678;SDS011;29279;50.858;4.392;2023-02-21T11:15:46;39.75;;;19.10;;
43678;SDS011;29279;50.858;4.392;2023-02-21T11:18:23;40.45;;;19.13;;
43678;SDS011;29279;50.858;4.392;2023-02-21T11:20:50;36.42;;;18.35;;
43678;SDS011;29279;50.858;4.392;2023-02-21T11:25:45;35.35;;;18.23;;
43678;SDS011;29279;50.858;4.392;2023-02-21T11:30:48;39.15;;;19.38;;
43678;SDS011;29279;50.858;4.392;2023-02-21T11:33:19;33.47;;;18.73;;
43678;SDS011;29279;50.858;4.392;2023-02-21T11:35:46;37.08;;;18.13;;
43678;SDS011;29279;50.858;4.392;2023-02-21T11:38:33;35.00;;;18.05;;
43678;SDS011;29279;50.858;4.392;2023-02-21T11:41:32;33.05;;;17.45;;
43678;SDS011;29279;50.858;4.392;2023-02-21T11:43:52;27.90;;;16.33;;
43678;SDS011;29279;50.858;4.392;2023-02-21T11:46:43;30.25;;;16.70;;
43678;SDS011;29279;50.858;4.392;2023-02-21T11:51:52;29.35;;;16.10;;
43678;SDS011;29279;50.858;4.392;2023-02-21T11:54:27;28.15;;;14.90;;
43678;SDS011;29279;50.858;4.392;2023-02-21T11:57:13;27.73;;;15.88;;
43678;SDS011;29279;50.858;4.392;2023-02-21T11:59:47;26.58;;;14.93;;
43678;SDS011;29279;50.858;4.392;2023-02-21T12:13:02;29.65;;;16.83;;
43678;SDS011;29279;50.858;4.392;2023-02-21T12:15:45;31.58;;;16.70;;
43678;SDS011;29279;50.858;4.392;2023-02-21T12:18:40;31.15;;;16.80;;
43678;SDS011;29279;50.858;4.392;2023-02-21T12:26:33;31.70;;;16.88;;
43678;SDS011;29279;50.858;4.392;2023-02-21T12:31:52;25.92;;;16.35;;
43678;SDS011;29279;50.858;4.392;2023-02-21T12:34:33;30.17;;;16.50;;
43678;SDS011;29279;50.858;4.392;2023-02-21T12:40:24;33.20;;;16.85;;
43678;SDS011;29279;50.858;4.392;2023-02-21T12:45:53;31.02;;;17.17;;
43678;SDS011;29279;50.858;4.392;2023-02-21T12:51:02;31.55;;;17.70;;
43678;SDS011;29279;50.858;4.392;2023-02-21T12:56:25;29.40;;;15.75;;
43678;SDS011;29279;50.858;4.392;2023-02-21T12:59:03;33.92;;;17.08;;
43678;SDS011;29279;50.858;4.392;2023-02-21T13:01:48;29.33;;;16.85;;
43678;SDS011;29279;50.858;4.392;2023-02-21T13:04:23;30.10;;;17.38;;
43678;SDS011;29279;50.858;4.392;2023-02-21T13:10:12;35.08;;;19.55;;
43678;SDS011;29279;50.858;4.392;2023-02-21T13:15:21;30.40;;;16.52;;
43678;SDS011;29279;50.858;4.392;2023-02-21T13:17:53;30.85;;;17.25;;
43678;SDS011;29279;50.858;4.392;2023-02-21T13:21:01;27.85;;;16.20;;
43678;SDS011;29279;50.858;4.392;2023-02-21T13:28:58;34.80;;;16.33;;
43678;SDS011;29279;50.858;4.392;2023-02-21T13:31:25;27.25;;;16.20;;
43678;SDS011;29279;50.858;4.392;2023-02-21T13:34:01;30.65;;;16.98;;
43678;SDS011;29279;50.858;4.392;2023-02-21T13:41:29;27.15;;;15.93;;
43678;SDS011;29279;50.858;4.392;2023-02-21T13:44:45;29.33;;;16.95;;
43678;SDS011;29279;50.858;4.392;2023-02-21T13:46:59;25.58;;;15.27;;
43678;SDS011;29279;50.858;4.392;2023-02-21T13:49:38;23.33;;;15.15;;
43678;SDS011;29279;50.858;4.392;2023-02-21T13:57:48;33.17;;;17.23;;
43678;SDS011;29279;50.858;4.392;2023-02-21T14:08:17;32.05;;;17.63;;
43678;SDS011;29279;50.858;4.392;2023-02-21T14:18:50;27.33;;;15.77;;
43678;SDS011;29279;50.858;4.392;2023-02-21T14:24:00;25.08;;;15.98;;
43678;SDS011;29279;50.858;4.392;2023-02-21T14:39:51;31.75;;;17.75;;
43678;SDS011;29279;50.858;4.392;2023-02-21T14:42:48;29.92;;;17.58;;
43678;SDS011;29279;50.858;4.392;2023-02-21T14:45:54;26.95;;;16.50;;
43678;SDS011;29279;50.858;4.392;2023-02-21T15:01:39;29.13;;;17.42;;
43678;SDS011;29279;50.858;4.392;2023-02-21T15:06:42;30.95;;;17.00;;
43678;SDS011;29279;50.858;4.392;2023-02-21T15:09:18;27.67;;;15.90;;
43678;SDS011;29279;50.858;4.392;2023-02-21T15:11:45;28.23;;;16.40;;
43678;SDS011;29279;50.858;4.392;2023-02-21T15:16:39;30.58;;;16.40;;
43678;SDS011;29279;50.858;4.392;2023-02-21T15:19:16;23.92;;;15.38;;
43678;SDS011;29279;50.858;4.392;2023-02-21T15:21:46;25.83;;;15.50;;
43678;SDS011;29279;50.858;4.392;2023-02-21T15:24:12;30.88;;;14.98;;
43678;SDS011;29279;50.858;4.392;2023-02-21T15:26:39;21.20;;;14.02;;
43678;SDS011;29279;50.858;4.392;2023-02-21T15:29:09;23.88;;;15.00;;
43678;SDS011;29279;50.858;4.392;2023-02-21T15:31:52;21.38;;;14.50;;
43678;SDS011;29279;50.858;4.392;2023-02-21T15:34:32;25.55;;;14.85;;
43678;SDS011;29279;50.858;4.392;2023-02-21T15:37:25;20.23;;;13.82;;
43678;SDS011;29279;50.858;4.392;2023-02-21T15:39:58;27.23;;;14.80;;
43678;SDS011;29279;50.858;4.392;2023-02-21T15:42:36;20.23;;;13.80;;
43678;SDS011;29279;50.858;4.392;2023-02-21T15:45:04;25.73;;;15.20;;
43678;SDS011;29279;50.858;4.392;2023-02-21T15:47:35;23.20;;;14.35;;
43678;SDS011;29279;50.858;4.392;2023-02-21T15:50:02;19.95;;;13.07;;
43678;SDS011;29279;50.858;4.392;2023-02-21T16:02:50;25.92;;;13.55;;
43678;SDS011;29279;50.858;4.392;2023-02-21T16:05:23;23.35;;;13.75;;
43678;SDS011;29279;50.858;4.392;2023-02-21T16:07:53;20.10;;;13.07;;
43678;SDS011;29279;50.858;4.392;2023-02-21T16:10:25;24.50;;;14.17;;
43678;SDS011;29279;50.858;4.392;2023-02-21T16:12:55;22.50;;;13.07;;
43678;SDS011;29279;50.858;4.392;2023-02-21T16:15:30;20.63;;;12.27;;
43678;SDS011;29279;50.858;4.392;2023-02-21T16:18:03;20.50;;;12.43;;
43678;SDS011;29279;50.858;4.392;2023-02-21T16:28:21;19.15;;;12.88;;
43678;SDS011;29279;50.858;4.392;2023-02-21T16:30:47;19.33;;;12.55;;
43678;SDS011;29279;50.858;4.392;2023-02-21T16:33:13;24.75;;;13.10;;
43678;SDS011;29279;50.858;4.392;2023-02-21T16:35:39;24.15;;;13.52;;
43678;SDS011;29279;50.858;4.392;2023-02-21T16:38:08;21.92;;;13.50;;
43678;SDS011;29279;50.858;4.392;2023-02-21T16:40:37;22.80;;;13.10;;
43678;SDS011;29279;50.858;4.392;2023-02-21T16:43:03;19.88;;;13.00;;
43678;SDS011;29279;50.858;4.392;2023-02-21T16:45:29;22.20;;;14.00;;
43678;SDS011;29279;50.858;4.392;2023-02-21T16:47:57;23.98;;;14.07;;
43678;SDS011;29279;50.858;4.392;2023-02-21T16:53:01;21.98;;;14.70;;
43678;SDS011;29279;50.858;4.392;2023-02-21T16:55:28;31.80;;;15.35;;
43678;SDS011;29279;50.858;4.392;2023-02-21T16:57:55;28.40;;;15.55;;
43678;SDS011;29279;50.858;4.392;2023-02-21T17:00:26;27.08;;;15.50;;
43678;SDS011;29279;50.858;4.392;2023-02-21T17:02:52;26.35;;;15.30;;
43678;SDS011;29279;50.858;4.392;2023-02-21T17:05:19;25.15;;;14.85;;
43678;SDS011;29279;50.858;4.392;2023-02-21T17:07:46;25.73;;;14.65;;
43678;SDS011;29279;50.858;4.392;2023-02-21T17:10:17;25.95;;;16.17;;
43678;SDS011;29279;50.858;4.392;2023-02-21T17:12:43;24.23;;;15.55;;
43678;SDS011;29279;50.858;4.392;2023-02-21T17:15:09;24.48;;;15.60;;
43678;SDS011;29279;50.858;4.392;2023-02-21T17:17:36;27.63;;;15.13;;
43678;SDS011;29279;50.858;4.392;2023-02-21T17:20:03;28.40;;;15.07;;
43678;SDS011;29279;50.858;4.392;2023-02-21T17:22:29;24.00;;;15.60;;
43678;SDS011;29279;50.858;4.392;2023-02-21T17:24:55;23.42;;;15.27;;
43678;SDS011;29279;50.858;4.392;2023-02-21T17:27:21;26.17;;;15.88;;
43678;SDS011;29279;50.858;4.392;2023-02-21T17:29:47;28.17;;;15.93;;
43678;SDS011;29279;50.858;4.392;2023-02-21T17:32:13;22.55;;;15.30;;
43678;SDS011;29279;50.858;4.392;2023-02-21T17:34:39;28.10;;;16.02;;
43678;SDS011;29279;50.858;4.392;2023-02-21T17:37:07;27.73;;;16.50;;
43678;SDS011;29279;50.858;4.392;2023-02-21T17:39:34;27.02;;;15.85;;
43678;SDS011;29279;50.858;4.392;2023-02-21T17:42:00;23.92;;;16.17;;
43678;SDS011;29279;50.858;4.392;2023-02-21T17:44:26;26.85;;;16.70;;
43678;SDS011;29279;50.858;4.392;2023-02-21T17:46:53;34.30;;;18.67;;
43678;SDS011;29279;50.858;4.392;2023-02-21T17:49:20;26.38;;;17.42;;
43678;SDS011;29279;50.858;4.392;2023-02-21T17:51:48;32.33;;;18.38;;